createdAt,value
2018-10-21T00:02:54.590Z,6.33
2018-10-21T00:05:59.025Z,11.37
2018-10-21T00:09:03.320Z,10.80
2018-10-21T00:12:07.637Z,13.13
2018-10-21T00:15:11.693Z,14.27
2018-10-21T00:18:15.955Z,16.20
2018-10-21T00:21:20.186Z,14.03
2018-10-21T00:24:24.453Z,10.03
2018-10-21T00:27:28.805Z,13.87
2018-10-21T00:30:33.140Z,14.77
2018-10-21T00:33:37.437Z,9.20
2018-10-21T00:36:41.664Z,9.20
2018-10-21T00:39:47.419Z,13.37
2018-10-21T00:42:51.963Z,11.23
2018-10-21T00:45:56.279Z,20.27
2018-10-21T00:49:00.573Z,12.63
2018-10-21T00:52:04.934Z,11.70
2018-10-21T00:55:11.543Z,12.50
2018-10-21T00:58:15.806Z,11.67
2018-10-21T01:01:20.159Z,9.30
2018-10-21T01:04:24.488Z,14.60
2018-10-21T01:07:28.813Z,10.07
2018-10-21T01:10:33.699Z,15.70
2018-10-21T01:13:38.009Z,14.30
2018-10-21T01:16:42.343Z,10.77
2018-10-21T01:19:46.456Z,15.37
2018-10-21T01:22:50.793Z,11.97
2018-10-21T01:25:55.104Z,10.47
2018-10-21T01:28:59.444Z,14.47
2018-10-21T01:32:06.541Z,13.40
2018-10-21T01:35:11.369Z,9.47
2018-10-21T01:38:15.726Z,10.73
2018-10-21T01:41:19.962Z,10.13
2018-10-21T01:44:25.335Z,12.73
2018-10-21T01:47:29.492Z,15.97
2018-10-21T01:50:33.731Z,8.93
2018-10-21T01:53:38.098Z,13.03
2018-10-21T01:56:43.338Z,20.10
2018-10-21T01:59:47.649Z,17.60
2018-10-21T02:02:52.036Z,14.27
2018-10-21T02:05:56.288Z,10.67
2018-10-21T02:09:00.639Z,10.50
2018-10-21T02:12:04.933Z,11.80
2018-10-21T02:15:14.579Z,16.20
2018-10-21T02:18:18.745Z,14.73
2018-10-21T02:21:23.034Z,13.93
2018-10-21T02:24:27.348Z,12.23
2018-10-21T02:27:33.353Z,13.13
2018-10-21T02:30:38.774Z,16.00
2018-10-21T02:33:43.142Z,13.87
2018-10-21T02:36:47.291Z,10.57
2018-10-21T02:39:52.691Z,11.30
2018-10-21T02:42:56.791Z,10.10
2018-10-21T02:46:01.079Z,13.63
2018-10-21T02:49:05.986Z,14.73
2018-10-21T02:52:11.407Z,17.27
2018-10-21T02:55:15.790Z,19.10
2018-10-21T02:58:19.922Z,15.53
2018-10-21T03:01:24.177Z,13.83
2018-10-21T03:04:28.425Z,18.37
2018-10-21T03:07:35.551Z,10.73
2018-10-21T03:10:39.909Z,13.83
2018-10-21T03:13:46.313Z,11.67
2018-10-21T03:16:50.475Z,18.60
2018-10-21T03:19:55.171Z,13.50
2018-10-21T03:22:59.509Z,15.57
2018-10-21T03:26:04.073Z,11.77
2018-10-21T03:29:08.351Z,20.97
2018-10-21T03:32:12.854Z,20.40
2018-10-21T03:35:16.904Z,12.43
2018-10-21T03:38:21.223Z,19.80
2018-10-21T03:41:25.520Z,16.33
2018-10-21T03:44:30.866Z,17.17
2018-10-21T03:47:35.156Z,14.93
2018-10-21T03:50:40.935Z,14.37
2018-10-21T03:53:45.323Z,15.33
2018-10-21T03:56:49.590Z,15.67
2018-10-21T03:59:53.701Z,11.17
2018-10-21T04:02:57.935Z,17.10
2018-10-21T04:06:03.699Z,18.07
2018-10-21T04:09:08.811Z,15.63
2018-10-21T04:12:12.943Z,14.60
2018-10-21T04:15:17.227Z,19.40
2018-10-21T04:18:21.520Z,16.57
2018-10-21T04:21:27.150Z,14.40
2018-10-21T04:24:31.595Z,17.03
2018-10-21T04:27:35.951Z,13.53
2018-10-21T04:30:41.362Z,17.30
2018-10-21T04:33:46.393Z,14.17
2018-10-21T04:36:54.081Z,18.80
2018-10-21T04:40:16.803Z,17.93
2018-10-21T04:43:21.086Z,17.47
2018-10-21T04:46:25.464Z,16.80
2018-10-21T04:49:29.724Z,23.90
2018-10-21T04:52:35.758Z,20.83
2018-10-21T04:55:40.064Z,17.37
2018-10-21T04:58:44.383Z,17.67
2018-10-21T05:01:48.650Z,20.60
2018-10-21T05:04:52.931Z,19.03
2018-10-21T05:07:57.177Z,16.73
2018-10-21T05:11:01.437Z,19.53
2018-10-21T05:14:06.199Z,19.20
2018-10-21T05:17:10.838Z,21.87
2018-10-21T05:20:16.653Z,19.77
2018-10-21T05:23:20.969Z,18.53
2018-10-21T05:26:25.222Z,19.50
2018-10-21T05:29:30.633Z,18.23
2018-10-21T05:32:35.470Z,19.97
2018-10-21T05:35:39.721Z,18.20
2018-10-21T05:38:45.537Z,19.77
2018-10-21T05:41:49.858Z,16.93
2018-10-21T05:44:54.270Z,17.50
2018-10-21T05:47:58.443Z,23.53
2018-10-21T05:51:02.789Z,21.90
2018-10-21T05:54:09.081Z,22.43
2018-10-21T05:57:13.445Z,21.40
2018-10-21T06:00:19.145Z,19.97
2018-10-21T06:03:23.492Z,19.03
2018-10-21T06:06:27.843Z,24.80
2018-10-21T06:09:32.434Z,15.60
2018-10-21T06:12:36.751Z,20.10
2018-10-21T06:15:41.394Z,18.53
2018-10-21T06:18:46.233Z,16.00
2018-10-21T06:21:50.531Z,19.80
2018-10-21T06:24:54.891Z,16.73
2018-10-21T06:27:59.731Z,18.67
2018-10-21T06:31:04.179Z,18.80
2018-10-21T06:34:09.831Z,15.73
2018-10-21T06:37:14.069Z,18.47
2018-10-21T06:40:18.235Z,19.00
2018-10-21T06:43:22.547Z,21.30
2018-10-21T06:46:26.649Z,17.20
2018-10-21T06:49:30.794Z,16.87
2018-10-21T06:52:34.990Z,21.00
2018-10-21T06:55:41.605Z,16.87
2018-10-21T06:58:45.968Z,15.30
2018-10-21T07:01:50.303Z,14.70
2018-10-21T07:04:54.751Z,14.27
2018-10-21T07:07:59.520Z,15.70
2018-10-21T07:11:04.271Z,18.17
2018-10-21T07:14:08.800Z,15.27
2018-10-21T07:17:13.078Z,16.37
2018-10-21T07:20:17.438Z,16.23
2018-10-21T07:23:21.577Z,18.03
2018-10-21T07:26:26.026Z,16.20
2018-10-21T07:29:30.374Z,13.43
2018-10-21T07:32:35.952Z,15.80
2018-10-21T07:35:40.093Z,18.97
2018-10-21T07:38:44.480Z,16.10
2018-10-21T07:41:50.258Z,15.40
2018-10-21T07:44:54.564Z,20.30
2018-10-21T07:47:58.943Z,18.07
2018-10-21T07:51:03.226Z,17.90
2018-10-21T07:54:07.595Z,16.53
2018-10-21T07:57:11.934Z,17.43
2018-10-21T08:00:17.719Z,18.37
2018-10-21T08:03:21.822Z,19.10
2018-10-21T08:06:38.066Z,20.67
2018-10-21T08:09:43.500Z,21.83
2018-10-21T08:12:48.539Z,20.17
2018-10-21T08:15:52.965Z,24.30
2018-10-21T08:18:57.313Z,24.20
2018-10-21T08:22:02.375Z,22.63
2018-10-21T08:25:06.798Z,24.77
2018-10-21T08:28:10.915Z,27.40
2018-10-21T08:31:15.268Z,28.23
2018-10-21T08:34:19.412Z,38.80
2018-10-21T08:37:23.754Z,37.13
2018-10-21T08:40:29.350Z,44.83
2018-10-21T08:43:34.204Z,37.50
2018-10-21T08:46:38.514Z,39.60
2018-10-21T08:49:44.982Z,40.13
2018-10-21T08:52:49.249Z,44.83
2018-10-21T08:55:53.452Z,44.07
2018-10-21T08:58:58.339Z,44.10
2018-10-21T09:02:02.654Z,41.97
2018-10-21T09:05:09.626Z,45.23
2018-10-21T09:08:14.150Z,45.60
2018-10-21T09:11:18.522Z,39.83
2018-10-21T09:14:23.129Z,48.77
2018-10-21T09:17:27.448Z,43.27
2018-10-21T09:20:31.792Z,42.43
2018-10-21T09:23:36.137Z,53.37
2018-10-21T09:26:40.917Z,44.37
2018-10-21T09:29:45.180Z,40.83
2018-10-21T09:32:49.570Z,50.00
2018-10-21T09:35:53.882Z,52.90
2018-10-21T09:38:58.183Z,47.13
2018-10-21T09:42:02.397Z,41.53
2018-10-21T09:45:07.595Z,48.07
2018-10-21T09:48:11.714Z,54.93
2018-10-21T09:51:16.002Z,46.90
2018-10-21T09:54:20.098Z,44.07
2018-10-21T09:57:24.382Z,53.73
2018-10-21T10:00:34.029Z,47.03
2018-10-21T10:03:38.456Z,46.27
2018-10-21T10:06:42.484Z,56.70
2018-10-21T10:09:46.557Z,55.03
2018-10-21T10:12:50.647Z,60.73
2018-10-21T10:15:56.355Z,51.03
2018-10-21T10:19:00.902Z,55.93
2018-10-21T10:22:05.384Z,47.73
2018-10-21T10:25:10.695Z,50.87
2018-10-21T10:28:15.114Z,47.50
2018-10-21T10:31:19.451Z,59.93
2018-10-21T10:34:23.629Z,54.83
2018-10-21T10:37:28.513Z,56.13
2018-10-21T10:40:32.785Z,54.10
2018-10-21T10:43:37.050Z,57.13
2018-10-21T10:46:41.159Z,61.43
2018-10-21T10:49:47.081Z,56.20
2018-10-21T10:52:51.395Z,61.97
2018-10-21T10:55:55.743Z,70.47
2018-10-21T10:59:00.057Z,64.83
2018-10-21T11:02:04.498Z,60.87
2018-10-21T11:05:09.766Z,69.40
2018-10-21T11:08:14.097Z,63.43
2018-10-21T11:11:18.282Z,57.10
2018-10-21T11:14:22.687Z,59.77
2018-10-21T11:17:27.104Z,65.40
2018-10-21T11:20:31.403Z,63.73
2018-10-21T11:23:35.724Z,67.50
2018-10-21T11:26:40.083Z,61.47
2018-10-21T11:29:46.284Z,68.43
2018-10-21T11:32:50.646Z,65.07
2018-10-21T11:35:54.993Z,62.10
2018-10-21T11:38:59.292Z,73.43
2018-10-21T11:42:03.715Z,73.47
2018-10-21T11:45:08.432Z,69.17
2018-10-21T11:48:12.713Z,74.10
2018-10-21T11:51:17.072Z,68.50
2018-10-21T11:54:21.505Z,71.63
2018-10-21T11:57:25.927Z,72.13
2018-10-21T12:00:30.351Z,67.47
2018-10-21T12:03:34.475Z,68.17
2018-10-21T12:06:38.927Z,71.50
2018-10-21T12:09:43.361Z,68.60
2018-10-21T12:12:48.733Z,58.70
2018-10-21T12:15:52.875Z,56.97
2018-10-21T12:18:57.215Z,48.90
2018-10-21T12:22:01.525Z,52.37
2018-10-21T12:25:06.623Z,50.10
2018-10-21T12:28:10.987Z,62.80
2018-10-21T12:31:15.330Z,55.37
2018-10-21T12:34:19.692Z,55.00
2018-10-21T12:37:26.509Z,50.97
2018-10-21T12:40:30.899Z,53.93
2018-10-21T12:43:35.333Z,48.60
2018-10-21T12:46:40.219Z,50.03
2018-10-21T12:49:44.558Z,48.83
2018-10-21T12:52:48.918Z,46.73
2018-10-21T12:55:53.769Z,44.97
2018-10-21T12:58:58.060Z,48.23
2018-10-21T13:02:02.410Z,50.37
2018-10-21T13:05:07.070Z,43.10
2018-10-21T13:08:11.454Z,46.83
2018-10-21T13:11:15.738Z,43.23
2018-10-21T13:14:20.076Z,46.20
2018-10-21T13:17:24.411Z,43.23
2018-10-21T13:20:28.704Z,41.87
2018-10-21T13:23:33.035Z,47.20
2018-10-21T13:26:37.460Z,46.67
2018-10-21T13:29:41.786Z,47.43
2018-10-21T13:32:47.350Z,42.53
2018-10-21T13:35:51.675Z,43.37
2018-10-21T13:38:56.054Z,41.77
2018-10-21T13:42:00.380Z,42.70
2018-10-21T13:45:04.750Z,44.27
2018-10-21T13:48:09.096Z,43.23
2018-10-21T13:51:13.439Z,42.53
2018-10-21T13:54:17.593Z,45.17
2018-10-21T13:57:21.852Z,42.33
2018-10-21T14:00:26.253Z,44.87
2018-10-21T14:03:30.550Z,45.23
2018-10-21T14:06:34.836Z,46.23
2018-10-21T14:09:39.418Z,52.80
2018-10-21T14:12:43.796Z,46.53
2018-10-21T14:15:48.164Z,46.00
2018-10-21T14:18:52.626Z,54.33
2018-10-21T14:21:56.945Z,59.67
2018-10-21T14:25:01.149Z,49.47
2018-10-21T14:28:05.679Z,54.47
2018-10-21T14:31:10.485Z,56.67
2018-10-21T14:34:14.851Z,57.83
2018-10-21T14:37:19.549Z,51.90
2018-10-21T14:40:23.877Z,52.20
2018-10-21T14:43:28.209Z,53.33
2018-10-21T14:46:32.653Z,58.77
2018-10-21T14:49:36.973Z,58.40
2018-10-21T14:52:41.272Z,55.77
2018-10-21T14:55:45.563Z,59.20
2018-10-21T14:58:49.633Z,56.57
2018-10-21T15:01:53.961Z,53.87
2018-10-21T15:04:58.261Z,57.53
2018-10-21T15:08:02.648Z,70.27
2018-10-21T15:11:07.103Z,58.13
2018-10-21T15:14:12.068Z,55.67
2018-10-21T15:17:16.461Z,55.53
2018-10-21T15:20:20.825Z,52.00
2018-10-21T15:23:25.950Z,61.83
2018-10-21T15:26:30.262Z,59.60
2018-10-21T15:29:36.001Z,56.80
2018-10-21T15:32:40.991Z,55.57
2018-10-21T15:35:45.348Z,55.87
2018-10-21T15:38:50.163Z,56.20
2018-10-21T15:41:55.753Z,59.10
2018-10-21T15:45:00.133Z,58.67
2018-10-21T15:48:04.324Z,52.87
2018-10-21T15:51:08.704Z,54.47
2018-10-21T15:54:13.598Z,56.87
2018-10-21T15:57:17.950Z,50.13
2018-10-21T16:00:22.250Z,57.13
2018-10-21T16:03:26.548Z,54.90
2018-10-21T16:06:30.865Z,60.50
2018-10-21T16:09:35.377Z,57.47
2018-10-21T16:12:41.628Z,60.47
2018-10-21T16:15:45.760Z,62.23
2018-10-21T16:18:50.041Z,60.73
2018-10-21T16:21:54.944Z,64.97
2018-10-21T16:24:59.302Z,65.13
2018-10-21T16:28:04.564Z,62.30
2018-10-21T16:31:10.181Z,60.17
2018-10-21T16:34:17.375Z,56.37
2018-10-21T16:37:26.616Z,65.80
2018-10-21T16:40:33.155Z,60.37
2018-10-21T16:43:39.476Z,60.60
2018-10-21T16:46:45.299Z,61.20
2018-10-21T16:49:51.423Z,55.97
2018-10-21T16:52:57.321Z,57.47
2018-10-21T16:56:02.931Z,54.53
2018-10-21T16:59:10.047Z,53.13
2018-10-21T17:02:15.208Z,55.00
2018-10-21T17:05:20.722Z,56.43
2018-10-21T17:08:26.239Z,57.37
2018-10-21T17:11:33.176Z,55.03
2018-10-21T17:14:39.102Z,51.17
2018-10-21T17:17:44.906Z,54.37
2018-10-21T17:20:49.863Z,54.40
2018-10-21T17:23:55.075Z,55.47
2018-10-21T17:27:00.257Z,52.47
2018-10-21T17:30:07.140Z,53.77
2018-10-21T17:33:12.026Z,46.67
2018-10-21T17:36:17.620Z,53.07
2018-10-21T17:39:22.646Z,50.80
2018-10-21T17:42:28.684Z,46.13
2018-10-21T17:45:33.977Z,56.17
2018-10-21T17:48:38.513Z,49.90
2018-10-21T17:51:43.655Z,50.57
2018-10-21T17:54:48.179Z,48.57
2018-10-21T17:57:52.811Z,45.93
2018-10-21T18:00:57.498Z,47.07
2018-10-21T18:04:02.239Z,47.90
2018-10-21T18:07:08.045Z,43.30
2018-10-21T18:10:12.959Z,47.33
2018-10-21T18:13:17.703Z,45.13
2018-10-21T18:16:22.193Z,43.23
2018-10-21T18:19:27.211Z,46.67
2018-10-21T18:22:32.435Z,48.47
2018-10-21T18:25:36.767Z,49.53
2018-10-21T18:28:41.263Z,48.90
2018-10-21T18:31:47.104Z,48.53
2018-10-21T18:34:51.891Z,49.67
2018-10-21T18:37:56.288Z,47.50
2018-10-21T18:41:00.999Z,54.73
2018-10-21T18:44:06.157Z,46.20
2018-10-21T18:47:10.760Z,48.93
2018-10-21T18:50:15.988Z,50.27
2018-10-21T18:53:20.262Z,46.70
2018-10-21T18:56:24.513Z,45.77
2018-10-21T18:59:28.976Z,50.00
2018-10-21T19:02:33.396Z,45.70
2018-10-21T19:05:38.686Z,46.37
2018-10-21T19:08:43.733Z,49.27
2018-10-21T19:11:48.024Z,44.07
2018-10-21T19:14:52.318Z,48.20
2018-10-21T19:17:57.445Z,43.57
2018-10-21T19:21:02.021Z,46.03
2018-10-21T19:24:06.613Z,41.90
2018-10-21T19:27:11.040Z,39.77
2018-10-21T19:30:15.815Z,45.40
2018-10-21T19:33:20.016Z,42.20
2018-10-21T19:36:24.375Z,41.20
2018-10-21T19:39:29.840Z,44.30
2018-10-21T19:42:34.215Z,48.27
2018-10-21T19:45:39.593Z,47.07
2018-10-21T19:48:44.015Z,43.80
2018-10-21T19:51:49.005Z,44.33
2018-10-21T19:54:54.407Z,45.20
2018-10-21T19:57:58.925Z,42.50
2018-10-21T20:01:03.049Z,44.70
2018-10-21T20:04:07.555Z,40.77
2018-10-21T20:07:11.746Z,47.10
2018-10-21T20:10:16.988Z,43.27
2018-10-21T20:13:21.099Z,41.37
2018-10-21T20:16:25.455Z,43.03
2018-10-21T20:19:29.766Z,47.50
2018-10-21T20:22:35.322Z,43.17
2018-10-21T20:25:39.686Z,45.83
2018-10-21T20:28:44.091Z,44.63
2018-10-21T20:31:48.459Z,47.40
2018-10-21T20:34:52.860Z,47.83
2018-10-21T20:37:57.413Z,46.63
2018-10-21T20:41:01.693Z,47.60
2018-10-21T20:44:06.124Z,52.07
2018-10-21T20:47:10.322Z,46.73
2018-10-21T20:50:16.359Z,56.73
2018-10-21T20:53:20.641Z,53.80
2018-10-21T20:56:24.930Z,63.10
2018-10-21T20:59:29.942Z,64.57
2018-10-21T21:02:34.305Z,61.37
2018-10-21T21:05:38.740Z,68.73
2018-10-21T21:08:42.858Z,64.07
2018-10-21T21:11:47.263Z,74.00
2018-10-21T21:14:51.424Z,63.30
2018-10-21T21:17:55.809Z,68.17
2018-10-21T21:21:00.344Z,62.63
2018-10-21T21:24:06.333Z,70.67
2018-10-21T21:27:10.636Z,68.57
2018-10-21T21:30:17.526Z,67.30
2018-10-21T21:33:21.816Z,69.30
2018-10-21T21:36:26.133Z,74.13
2018-10-21T21:39:30.428Z,81.17
2018-10-21T21:42:35.297Z,75.30
2018-10-21T21:45:39.561Z,87.83
2018-10-21T21:48:43.737Z,88.70
2018-10-21T21:51:48.766Z,89.63
2018-10-21T21:54:53.042Z,88.57
2018-10-21T21:57:57.453Z,99.80
2018-10-21T22:01:01.799Z,94.27
2018-10-21T22:04:06.734Z,92.73
2018-10-21T22:07:10.894Z,97.83
2018-10-21T22:10:15.713Z,102.73
2018-10-21T22:13:20.385Z,96.53
2018-10-21T22:16:24.636Z,95.73
2018-10-21T22:19:28.909Z,89.73
2018-10-21T22:22:33.165Z,108.33
2018-10-21T22:25:38.028Z,109.43
2018-10-21T22:28:42.441Z,113.93
2018-10-21T22:31:48.558Z,116.43
2018-10-21T22:34:52.941Z,104.77
2018-10-21T22:37:57.294Z,114.97
2018-10-21T22:41:01.412Z,109.70
2018-10-21T22:44:06.034Z,101.17
2018-10-21T22:47:10.334Z,108.83
2018-10-21T22:50:14.745Z,109.67
2018-10-21T22:53:19.269Z,108.87
2018-10-21T22:56:23.426Z,103.63
2018-10-21T22:59:27.870Z,93.80
2018-10-21T23:02:32.352Z,100.13
2018-10-21T23:05:36.682Z,80.13
2018-10-21T23:08:40.987Z,86.20
2018-10-21T23:11:45.489Z,84.00
2018-10-21T23:14:49.836Z,80.73
2018-10-21T23:17:54.186Z,69.57
2018-10-21T23:21:00.036Z,66.10
2018-10-21T23:24:05.208Z,57.30
2018-10-21T23:27:10.253Z,51.67
2018-10-21T23:30:14.640Z,54.10
2018-10-21T23:33:19.207Z,43.03
2018-10-21T23:36:24.105Z,44.07
2018-10-21T23:39:29.051Z,41.67
2018-10-21T23:42:33.960Z,30.03
2018-10-21T23:45:38.274Z,26.57
2018-10-21T23:48:43.648Z,24.83
2018-10-21T23:51:48.624Z,20.13
2018-10-21T23:54:52.782Z,16.50
2018-10-21T23:57:57.332Z,9.30
